Edward White

Scout - Newcastle United
3 Apr 2027
Samstag
Verarbeitung

Persönlichkeit

Anpassungsfähigkeit (20) Ehrgeiz (6) Kontroverse (6) Loyalität (11) Druck (4) Professionalität (1) Fairness (12) Temperament (18)

Profil

Trainerstil Demokratisch
Lizenz Kontinentale C
Entschlossenheit 9
Menschenführung 16
Motivation 12
Disziplin 13
Arbeitszufriedenheit
93%
Ermüdung
0%
Rolle Scout
Gehalt 41.2K p/W
Vertrag 14.03.2029

Leistung

Verhalten Gut
Trainingseffektivität
54%
Spielerentwicklung
30%
Verletzungsprävention
65%
Taktische Umsetzung
45%

Letzte Ereignisse

Spieler begutachtet jetzt
Spieler begutachtet jetzt
Nahm an einer Scouting-Besprechung teil jetzt
Nahm an einer Scouting-Besprechung teil jetzt
Spieler begutachtet jetzt
Spieler begutachtet jetzt
Spieler begutachtet 7T her
Spieler begutachtet 7T her

Aktuell beobachtet

130
Spieler Verein Status Fähigkeit Vertrauen Beobachtet Zuletzt beobachtet Letzte Stimme
Matheus Gonçalves Al-Ahli Aktiv 122 / 113 40% 4 02.04.2027 -
Camilo Rey Domenech Boca Juniors Aktiv 110 / 115 40% 10 02.04.2027 -
Leny Yoro Manchester United Aktiv 148 / 153 40% 6 02.04.2027 -
Riyad Idrissi Cagliari Aktiv 118 / 133 40% 7 02.04.2027 -
Jobe Bellingham RB Leipzig Aktiv 131 / 141 40% 5 02.04.2027 -
Gonçalo Sousa Porto Aktiv 119 / 120 40% 2 02.04.2027 -
James Trafford Leeds United Aktiv 149 / 137 40% 6 01.04.2027 -
Oliver Dovin Coventry City Aktiv 130 / 134 40% 12 01.04.2027 -
Edoardo Motta Lazio Aktiv 127 / 137 40% 15 01.04.2027 -
Alex Tóth Bournemouth Aktiv 118 / 117 40% 3 30.03.2027 -
Saïmon Bouabré Al-Hilal Aktiv 116 / 116 40% 6 29.03.2027 -
Mohamadou Kanté West Ham United Aktiv 108 / 131 40% 2 29.03.2027 -
Lukáš Horníček Tottenham Aktiv 142 / 145 40% 11 29.03.2027 -
Pedro Zenit Aktiv 123 / 129 40% 3 29.03.2027 -
Lorenzo Palmisani Frosinone Aktiv 129 / 123 40% 3 28.03.2027 -
Valentin Atangana Juventus Aktiv 131 / 126 40% 8 25.03.2027 -
Juan Pablo De la Reta Maipú Aktiv 108 / 114 40% 2 25.03.2027 -
Chris Rigg Sunderland Abgelehnt 131 / 148 40% 1 25.03.2027 Mehr Infos nötig
Alysson Edward Aston Villa Aktiv 125 / 137 40% 4 23.03.2027 -
Sander Tangvik Hamburger SV Aktiv 131 / 119 40% 11 23.03.2027 -
Pierce Charles Manchester City Aktiv 120 / 126 40% 9 23.03.2027 -
Robin Roefs Sunderland Aktiv 139 / 145 40% 18 22.03.2027 -
Nikolaus Wurmbrand Brighton Aktiv 125 / 120 40% 3 20.03.2027 -
Suleman Sani RB Leipzig Aktiv 129 / 130 40% 3 20.03.2027 -
Jaydee Canvot Crystal Palace Aktiv 137 / 127 40% 3 18.03.2027 -
Axel Tape Bayer Leverkusen Aktiv 128 / 128 40% 8 17.03.2027 -
Josh King Liverpool Aktiv 136 / 141 40% 6 17.03.2027 -
Vanja Dragojević Partizan Aktiv 116 / 108 40% 2 17.03.2027 -
Francisco Chissumba Braga Aktiv 123 / 117 40% 5 14.03.2027 -
Sindre Walle Egeli Tottenham Aktiv 128 / 124 40% 1 13.03.2027 -
Antonín Kinský Tottenham Aktiv 145 / 134 40% 20 06.03.2027 -
Bart Verbruggen Brighton Aktiv 149 / 149 40% 14 28.02.2027 -
Cemran Dansin Orlando Pirates Aktiv 102 / 107 40% 5 26.02.2027 -
Mathys Tel Tottenham Aktiv 136 / 150 40% 6 25.02.2027 -
Antoni Milambo Brentford Aktiv 142 / 143 40% 4 23.02.2027 -
Bahmed Deuff Olympique de Marseille Aktiv 107 / 116 40% 2 19.02.2027 -
Edvin Austbø Viking Aktiv 128 / 133 40% 3 07.02.2027 -
Eliesse Ben Seghir Bayer Leverkusen Aktiv 130 / 148 40% 1 07.02.2027 -
Thiago Silvero River Plate Aktiv 115 / 127 40% 1 05.02.2027 -
Ezechiel Banzuzi RB Leipzig Aktiv 124 / 126 40% 1 01.02.2027 -
Jair Nottingham Forest Aktiv 134 / 133 40% 1 01.02.2027 -
Mamour N'Diaye Sarpsborg 08 Aktiv 115 / 115 40% 2 19.01.2027 -
Jaden Philogene Ipswich Town Verloren 135 / 134 72% 1 01.01.2027 -
Simphiwe Selepe Orlando Pirates Aktiv 101 / 107 40% 1 01.01.2027 -
George Hirst Stoke City Verloren 139 / 122 40% 3 30.12.2026 Beobachten
Gonzalo Plata Dinamo Moscow Verloren 136 / 128 40% 2 30.12.2026 -
Santiago Mina VfL Wolfsburg Aktiv 138 / 154 40% 1 28.12.2026 -
Tamerlan Musaev CSKA Moscow Aktiv 127 / 130 40% 1 28.12.2026 -
Yoan Bonny Inter Aktiv 151 / 136 40% 1 28.12.2026 -
Camillo Tavernelli Arezzo Aktiv 112 / 107 40% 1 26.12.2026 -
Lorenzo Colombo Genoa Aktiv 140 / 128 40% 1 26.12.2026 -
Sibusiso Tshabalala Polokwane City Aktiv 79 / 74 40% 1 26.12.2026 -
Josh Coburn Millwall Aktiv 117 / 109 40% 2 25.12.2026 -
Rumarn Burrell Queens Park Rangers Aktiv 128 / 135 40% 2 25.12.2026 -
Lazar Jovanović VfB Stuttgart Aktiv 107 / 127 40% 2 25.12.2026 -
Mateo Fernández Angusht Aktiv 74 / 90 40% 1 25.12.2026 -
Senne Lammens Manchester United Abgelehnt 153 / 146 40% 18 23.12.2026 Ablehnen
Donnell McNeilly Nottingham Forest Aktiv 116 / 106 40% 1 22.12.2026 -
Rayan Bournemouth Abgelehnt 141 / 149 40% 3 21.12.2026 Ablehnen
Santiago Sosa Yung Defensa y Justicia Aktiv 122 / 126 40% 2 21.12.2026 -
Eddie Nketiah Crystal Palace Aktiv 142 / 129 40% 4 14.12.2026 -
Aune Heggebø West Bromwich Albion Aktiv 127 / 140 40% 1 14.12.2026 -
Tidiam Gomis RB Leipzig Aktiv 125 / 123 40% 1 14.12.2026 -
Ignacio Russo Tigre Aktiv 123 / 121 40% 2 10.12.2026 -
Emanuel Emegha Chelsea Aktiv 132 / 151 40% 2 10.12.2026 -
Yegor Golenkov Rostov Aktiv 116 / 114 40% 1 10.12.2026 -
Kevin Kelsy Portland Timbers Aktiv 109 / 119 40% 2 09.12.2026 -
Ollie Scarles West Ham United Aktiv 134 / 145 40% 3 06.12.2026 -
Đorđe Petrović Bournemouth Aktiv 143 / 147 40% 1 05.12.2026 -
Mateo Retegui Al-Qadisiyah Verloren 164 / 141 40% 2 03.12.2026 -
Ottó Hindrich Legia Aktiv 109 / 136 40% 6 01.12.2026 -
Elis Bishesari IFK Goteborg Aktiv 108 / 117 40% 5 01.12.2026 -
Chemsdine Talbi Sunderland Aktiv 146 / 129 40% 5 30.11.2026 -
Arkaitz Mariezkurrena Real Sociedad Aktiv 112 / 125 40% 1 30.11.2026 -
Yorbe Vertessen Red Bull Salzburg Aktiv 123 / 119 40% 1 28.11.2026 -
Bobby Clark Derby County Aktiv 116 / 129 40% 2 26.11.2026 -
Christopher Bonsu Baah Al-Qadisiyah Aktiv 124 / 124 40% 2 25.11.2026 -
Wilson Isidor Sunderland Aktiv 128 / 140 40% 2 23.11.2026 -
Luciano Gondou CSKA Moscow Aktiv 123 / 112 40% 2 23.11.2026 -
Jean-Luc Morin Tours Aktiv 147 / 132 40% 1 23.11.2026 -
Tomás Chancalay Minnesota United FC Aktiv 130 / 113 40% 3 20.11.2026 -
Jeong Sang-Bin St. Louis CITY SC Aktiv 121 / 128 40% 2 20.11.2026 -
Samu Aghehowa Arsenal Aktiv 152 / 165 40% 1 19.11.2026 -
Heorhii Yermakov Metalist Aktiv 107 / 127 40% 1 17.11.2026 -
Caoimhin Kelleher Brentford Aktiv 147 / 151 40% 2 11.11.2026 -
Noah Sadiki Sunderland Aktiv 137 / 145 40% 3 11.11.2026 -
Victor Olatunji Real Salt Lake Aktiv 118 / 112 40% 1 11.11.2026 -
Armando Broja Burnley Aktiv 138 / 148 40% 1 11.11.2026 -
Dmytro Riznyk Shakhtar Aktiv 136 / 123 40% 1 11.11.2026 -
Zeki Amdouni Burnley Aktiv 129 / 138 40% 2 08.11.2026 -
Brayan León Mamelodi Sundowns Aktiv 115 / 130 40% 3 08.11.2026 -
Gustavo Sá Nottingham Forest Aktiv 129 / 145 40% 2 04.11.2026 -
Arda Güler Real Madrid Aktiv 144 / 162 40% 2 04.11.2026 -
Tom Cannon Sheffield United Aktiv 122 / 117 40% 1 02.11.2026 -
Luis Vázquez Birmingham Aktiv 133 / 129 40% 1 02.11.2026 -
Marvin Keller Young Boys Aktiv 141 / 127 40% 6 29.10.2026 -
Luís Guilherme Sporting CP Aktiv 130 / 135 40% 1 29.10.2026 -
Dylan Gorosito Boca Juniors Aktiv 114 / 123 40% 1 29.10.2026 -
Pascal Loretz Luzern Aktiv 118 / 119 40% 6 27.10.2026 -
Kostantis Tzolakis Hull City Aktiv 131 / 150 40% 6 24.10.2026 -
Simon Becher St. Louis CITY SC Aktiv 108 / 101 40% 1 24.10.2026 -
Liam Delap Nottingham Forest Aktiv 139 / 147 40% 1 24.10.2026 -
El Hadji Malick Diouf Brentford Aktiv 140 / 139 40% 3 19.10.2026 -
Franco Fagúndez Estudiantes Aktiv 121 / 105 40% 1 19.10.2026 -
Radek Vítek Middlesbrough Aktiv 135 / 146 40% 6 17.10.2026 -
Sergey Pinyaev Lokomotiv Moscow Aktiv 131 / 112 40% 4 14.10.2026 -
Indiana Vassilev Philadelphia Union Aktiv 125 / 123 40% 2 12.10.2026 -
Michy Fellaini KV Oostende Aktiv 131 / 126 40% 2 10.10.2026 -
Tadeo Allende Inter Miami CF Aktiv 128 / 119 40% 2 10.10.2026 -
Matthieu Epolo Standard Liege Aktiv 117 / 114 40% 6 08.10.2026 -
Andreas Jungdal Westerlo Aktiv 112 / 108 40% 4 29.09.2026 -
Ruslan Neshcheret Dynamo Kyiv Aktiv 109 / 112 40% 2 29.09.2026 -
Álex Jiménez Bournemouth Aktiv 149 / 152 40% 4 24.09.2026 -
Brandon Vázquez Austin FC Aktiv 123 / 130 40% 2 23.09.2026 -
Ignacio Perruzzi San Lorenzo Aktiv 115 / 121 40% 1 23.09.2026 -
Florián Monzón Atlas Aktiv 125 / 125 40% 1 23.09.2026 -
Matheus Cunha Manchester United Aktiv 158 / 159 40% 1 23.09.2026 -
Nacer Tielemans Mouscron Aktiv 125 / 147 40% 3 18.09.2026 -
Mohamed-Ali Cho Hull City Aktiv 138 / 129 40% 1 18.09.2026 -
Georginio Rutter Brighton Aktiv 142 / 138 40% 1 16.09.2026 -
Cesar Corona Veracruz Aktiv 130 / 145 40% 1 16.09.2026 -
Relebohile Mofokeng Orlando Pirates Aktiv 115 / 109 40% 3 13.09.2026 -
Eliás Montiel Pachuca Aktiv 125 / 123 40% 1 07.09.2026 -
Axel Alderweireld KV Oostende Aktiv 138 / 134 40% 1 07.09.2026 -
Robert FC Copenhagen Aktiv 126 / 126 40% 1 31.08.2026 -
Mateus Mané Manchester United Aktiv 127 / 140 40% 1 29.08.2026 -
Rafael Luís Benfica Aktiv 124 / 116 40% 1 27.08.2026 -
Iván Fresneda Sporting CP Aktiv 128 / 129 40% 1 19.08.2026 -
Josh Keeley Luton Town Aktiv 111 / 130 40% 1 01.08.2026 -
Svetoslav Vutsov Levski Aktiv 121 / 122 40% 1 01.08.2026 -